sensor_id;sensor_type;location;lat;lon;timestamp;pressure;altitude;pressure_sealevel;temperature;humidity
51178;BME280;37243;49.814;8.652;2022-07-03T00:01:39;100374.25;;;25.64;41.94
51178;BME280;37243;49.814;8.652;2022-07-03T00:04:07;100369.88;;;25.72;41.91
51178;BME280;37243;49.814;8.652;2022-07-03T00:06:36;100363.09;;;25.69;42.48
51178;BME280;37243;49.814;8.652;2022-07-03T00:09:05;100367.94;;;25.64;41.82
51178;BME280;37243;49.814;8.652;2022-07-03T00:11:33;100368.75;;;25.64;42.22
51178;BME280;37243;49.814;8.652;2022-07-03T00:14:05;100378.13;;;25.72;42.09
51178;BME280;37243;49.814;8.652;2022-07-03T00:16:33;100372.81;;;25.67;42.03
51178;BME280;37243;49.814;8.652;2022-07-03T00:19:01;100375.06;;;25.65;42.26
51178;BME280;37243;49.814;8.652;2022-07-03T00:21:34;100376.19;;;25.64;42.39
51178;BME280;37243;49.814;8.652;2022-07-03T00:24:07;100375.38;;;25.63;42.13
51178;BME280;37243;49.814;8.652;2022-07-03T00:26:38;100379.28;;;25.62;42.13
51178;BME280;37243;49.814;8.652;2022-07-03T00:29:10;100374.09;;;25.61;42.49
51178;BME280;37243;49.814;8.652;2022-07-03T00:31:40;100373.44;;;25.64;41.81
51178;BME280;37243;49.814;8.652;2022-07-03T00:34:11;100374.56;;;25.63;41.80
51178;BME280;37243;49.814;8.652;2022-07-03T00:36:41;100379.75;;;25.64;42.14
51178;BME280;37243;49.814;8.652;2022-07-03T00:39:10;100377.19;;;25.59;42.12
51178;BME280;37243;49.814;8.652;2022-07-03T00:41:38;100364.56;;;25.58;42.69
51178;BME280;37243;49.814;8.652;2022-07-03T00:44:11;100368.44;;;25.57;42.41
51178;BME280;37243;49.814;8.652;2022-07-03T00:46:41;100363.56;;;25.63;42.12
51178;BME280;37243;49.814;8.652;2022-07-03T00:49:10;100366.31;;;25.63;42.56
51178;BME280;37243;49.814;8.652;2022-07-03T00:51:39;100364.56;;;25.58;42.61
51178;BME280;37243;49.814;8.652;2022-07-03T00:54:12;100367.66;;;25.57;42.68
51178;BME280;37243;49.814;8.652;2022-07-03T00:56:49;100372.81;;;25.58;42.27
51178;BME280;37243;49.814;8.652;2022-07-03T00:59:21;100368.28;;;25.62;42.25
51178;BME280;37243;49.814;8.652;2022-07-03T01:01:52;100370.38;;;25.57;42.00
51178;BME280;37243;49.814;8.652;2022-07-03T01:04:34;100374.91;;;25.53;42.10
51178;BME280;37243;49.814;8.652;2022-07-03T01:07:07;100370.38;;;25.57;42.57
51178;BME280;37243;49.814;8.652;2022-07-03T01:09:48;100366.81;;;25.56;42.21
51178;BME280;37243;49.814;8.652;2022-07-03T01:12:25;100361.16;;;25.53;42.28
51178;BME280;37243;49.814;8.652;2022-07-03T01:15:05;100370.84;;;25.50;41.92
51178;BME280;37243;49.814;8.652;2022-07-03T01:17:38;100368.94;;;25.51;42.77
51178;BME280;37243;49.814;8.652;2022-07-03T01:20:07;100365.38;;;25.50;42.46
51178;BME280;37243;49.814;8.652;2022-07-03T01:22:40;100368.94;;;25.51;41.81
51178;BME280;37243;49.814;8.652;2022-07-03T01:25:22;100371.66;;;25.51;42.14
51178;BME280;37243;49.814;8.652;2022-07-03T01:28:06;100370.66;;;25.47;42.66
51178;BME280;37243;49.814;8.652;2022-07-03T01:30:37;100372.31;;;25.48;42.73
51178;BME280;37243;49.814;8.652;2022-07-03T01:33:08;100379.41;;;25.49;42.30
51178;BME280;37243;49.814;8.652;2022-07-03T01:35:38;100373.59;;;25.50;42.64
51178;BME280;37243;49.814;8.652;2022-07-03T01:38:09;100369.03;;;25.46;42.31
51178;BME280;37243;49.814;8.652;2022-07-03T01:40:39;100364.69;;;25.45;42.75
51178;BME280;37243;49.814;8.652;2022-07-03T01:43:11;100367.91;;;25.47;42.71
51178;BME280;37243;49.814;8.652;2022-07-03T01:45:43;100357.94;;;25.51;42.54
51178;BME280;37243;49.814;8.652;2022-07-03T01:48:12;100364.06;;;25.48;42.40
51178;BME280;37243;49.814;8.652;2022-07-03T01:50:42;100364.69;;;25.45;42.44
51178;BME280;37243;49.814;8.652;2022-07-03T01:53:11;100357.56;;;25.44;42.59
51178;BME280;37243;49.814;8.652;2022-07-03T01:55:41;100365.81;;;25.44;42.47
51178;BME280;37243;49.814;8.652;2022-07-03T01:58:13;100360.31;;;25.44;41.86
51178;BME280;37243;49.814;8.652;2022-07-03T02:00:45;100355.16;;;25.42;42.17
51178;BME280;37243;49.814;8.652;2022-07-03T02:03:21;100355.47;;;25.40;42.52
51178;BME280;37243;49.814;8.652;2022-07-03T02:05:57;100346.75;;;25.38;42.33
51178;BME280;37243;49.814;8.652;2022-07-03T02:08:43;100341.72;;;25.40;42.24
51178;BME280;37243;49.814;8.652;2022-07-03T02:11:14;100342.53;;;25.41;41.96
51178;BME280;37243;49.814;8.652;2022-07-03T02:13:58;100337.38;;;25.39;42.19
51178;BME280;37243;49.814;8.652;2022-07-03T02:16:36;100336.88;;;25.37;42.24
51178;BME280;37243;49.814;8.652;2022-07-03T02:19:14;100336.06;;;25.37;41.98
51178;BME280;37243;49.814;8.652;2022-07-03T02:21:47;100334.47;;;25.36;41.96
51178;BME280;37243;49.814;8.652;2022-07-03T02:24:19;100333.31;;;25.37;41.87
51178;BME280;37243;49.814;8.652;2022-07-03T02:26:53;100336.41;;;25.35;42.03
51178;BME280;37243;49.814;8.652;2022-07-03T02:29:31;100337.53;;;25.34;42.21
51178;BME280;37243;49.814;8.652;2022-07-03T02:32:03;100336.06;;;25.37;42.12
51178;BME280;37243;49.814;8.652;2022-07-03T02:34:32;100344.63;;;25.35;41.73
51178;BME280;37243;49.814;8.652;2022-07-03T02:37:09;100347.38;;;25.35;42.26
51178;BME280;37243;49.814;8.652;2022-07-03T02:39:43;100341.41;;;25.33;42.06
51178;BME280;37243;49.814;8.652;2022-07-03T02:42:22;100361.41;;;25.34;42.27
51178;BME280;37243;49.814;8.652;2022-07-03T02:44:57;100347.69;;;25.34;42.40
51178;BME280;37243;49.814;8.652;2022-07-03T02:47:33;100352.41;;;25.33;42.24
51178;BME280;37243;49.814;8.652;2022-07-03T02:50:04;100351.91;;;25.40;41.98
51178;BME280;37243;49.814;8.652;2022-07-03T02:52:44;100356.44;;;25.36;41.70
51178;BME280;37243;49.814;8.652;2022-07-03T02:55:31;100358.03;;;25.37;42.41
51178;BME280;37243;49.814;8.652;2022-07-03T02:58:18;100362.09;;;25.31;41.89
51178;BME280;37243;49.814;8.652;2022-07-03T03:00:59;100366.44;;;25.32;42.19
51178;BME280;37243;49.814;8.652;2022-07-03T03:03:32;100373.38;;;25.29;42.57
51178;BME280;37243;49.814;8.652;2022-07-03T03:06:04;100368.38;;;25.31;42.15
51178;BME280;37243;49.814;8.652;2022-07-03T03:08:36;100369.00;;;25.28;41.83
51178;BME280;37243;49.814;8.652;2022-07-03T03:11:07;100376.59;;;25.31;41.64
51178;BME280;37243;49.814;8.652;2022-07-03T03:13:36;100375.81;;;25.31;42.43
51178;BME280;37243;49.814;8.652;2022-07-03T03:16:09;100362.41;;;25.29;42.25
51178;BME280;37243;49.814;8.652;2022-07-03T03:18:39;100374.50;;;25.28;41.88
51178;BME280;37243;49.814;8.652;2022-07-03T03:21:10;100368.53;;;25.26;42.54
51178;BME280;37243;49.814;8.652;2022-07-03T03:23:44;100367.88;;;25.29;41.92
51178;BME280;37243;49.814;8.652;2022-07-03T03:26:14;100375.66;;;25.27;42.10
51178;BME280;37243;49.814;8.652;2022-07-03T03:28:43;100378.06;;;25.29;41.96
51178;BME280;37243;49.814;8.652;2022-07-03T03:31:14;100379.50;;;25.26;42.44
51178;BME280;37243;49.814;8.652;2022-07-03T03:33:46;100395.97;;;25.26;41.68
51178;BME280;37243;49.814;8.652;2022-07-03T03:36:17;100392.13;;;25.27;42.31
51178;BME280;37243;49.814;8.652;2022-07-03T03:38:47;100388.84;;;25.25;41.96
51178;BME280;37243;49.814;8.652;2022-07-03T03:41:16;100381.78;;;25.24;42.34
51178;BME280;37243;49.814;8.652;2022-07-03T03:43:45;100392.41;;;25.26;42.29
51178;BME280;37243;49.814;8.652;2022-07-03T03:46:16;100398.72;;;25.26;41.75
51178;BME280;37243;49.814;8.652;2022-07-03T03:48:44;100396.94;;;25.22;42.21
51178;BME280;37243;49.814;8.652;2022-07-03T03:51:13;100405.19;;;25.22;42.28
51178;BME280;37243;49.814;8.652;2022-07-03T03:53:41;100408.78;;;25.31;42.13
51178;BME280;37243;49.814;8.652;2022-07-03T03:56:11;100395.69;;;25.28;41.87
51178;BME280;37243;49.814;8.652;2022-07-03T03:58:41;100402.09;;;25.23;41.85
51178;BME280;37243;49.814;8.652;2022-07-03T04:01:11;100402.09;;;25.23;41.69
51178;BME280;37243;49.814;8.652;2022-07-03T04:03:42;100403.22;;;25.22;41.70
51178;BME280;37243;49.814;8.652;2022-07-03T04:06:10;100400.81;;;25.21;42.48
51178;BME280;37243;49.814;8.652;2022-07-03T04:08:39;100400.00;;;25.20;42.45
51178;BME280;37243;49.814;8.652;2022-07-03T04:11:07;100405.97;;;25.22;42.06
51178;BME280;37243;49.814;8.652;2022-07-03T04:13:35;100401.00;;;25.24;41.68
51178;BME280;37243;49.814;8.652;2022-07-03T04:16:04;100409.41;;;25.28;42.29
51178;BME280;37243;49.814;8.652;2022-07-03T04:18:32;100411.97;;;25.24;42.28
51178;BME280;37243;49.814;8.652;2022-07-03T04:21:04;100421.66;;;25.22;41.90
51178;BME280;37243;49.814;8.652;2022-07-03T04:23:32;100407.13;;;25.21;42.18
51178;BME280;37243;49.814;8.652;2022-07-03T04:26:04;100417.63;;;25.19;42.45
51178;BME280;37243;49.814;8.652;2022-07-03T04:28:32;100418.09;;;25.21;42.37
51178;BME280;37243;49.814;8.652;2022-07-03T04:31:01;100413.72;;;25.20;41.91
51178;BME280;37243;49.814;8.652;2022-07-03T04:33:29;100416.81;;;25.19;42.70
51178;BME280;37243;49.814;8.652;2022-07-03T04:35:57;100421.47;;;25.18;42.67
51178;BME280;37243;49.814;8.652;2022-07-03T04:38:30;100422.78;;;25.21;42.06
51178;BME280;37243;49.814;8.652;2022-07-03T04:40:58;100422.28;;;25.19;42.58
51178;BME280;37243;49.814;8.652;2022-07-03T04:43:26;100422.28;;;25.19;42.74
51178;BME280;37243;49.814;8.652;2022-07-03T04:45:54;100424.53;;;25.17;42.85
51178;BME280;37243;49.814;8.652;2022-07-03T04:48:23;100418.88;;;25.13;42.30
51178;BME280;37243;49.814;8.652;2022-07-03T04:50:51;100428.25;;;25.12;42.66
51178;BME280;37243;49.814;8.652;2022-07-03T04:53:19;100430.16;;;25.12;42.56
51178;BME280;37243;49.814;8.652;2022-07-03T04:55:50;100427.75;;;25.10;43.16
51178;BME280;37243;49.814;8.652;2022-07-03T04:58:19;100428.06;;;25.09;43.52
51178;BME280;37243;49.814;8.652;2022-07-03T05:00:47;100428.38;;;25.07;43.61
51178;BME280;37243;49.814;8.652;2022-07-03T05:03:16;100420.63;;;25.09;42.87
51178;BME280;37243;49.814;8.652;2022-07-03T05:05:44;100423.38;;;25.09;43.14
51178;BME280;37243;49.814;8.652;2022-07-03T05:08:12;100423.72;;;25.08;43.34
51178;BME280;37243;49.814;8.652;2022-07-03T05:10:41;100415.47;;;25.08;43.95
51178;BME280;37243;49.814;8.652;2022-07-03T05:13:12;100421.75;;;25.08;43.30
51178;BME280;37243;49.814;8.652;2022-07-03T05:15:40;100416.25;;;25.08;44.05
51178;BME280;37243;49.814;8.652;2022-07-03T05:18:08;100420.31;;;25.11;43.47
51178;BME280;37243;49.814;8.652;2022-07-03T05:20:37;100425.31;;;25.09;43.67
51178;BME280;37243;49.814;8.652;2022-07-03T05:23:05;100430.16;;;25.12;43.55
51178;BME280;37243;49.814;8.652;2022-07-03T05:25:33;100431.28;;;25.11;43.97
51178;BME280;37243;49.814;8.652;2022-07-03T05:28:02;100429.34;;;25.11;43.34
51178;BME280;37243;49.814;8.652;2022-07-03T05:30:33;100423.56;;;25.13;43.68
51178;BME280;37243;49.814;8.652;2022-07-03T05:33:01;100414.03;;;25.10;43.93
51178;BME280;37243;49.814;8.652;2022-07-03T05:35:29;100425.16;;;25.14;43.20
51178;BME280;37243;49.814;8.652;2022-07-03T05:37:58;100428.72;;;25.14;43.09
51178;BME280;37243;49.814;8.652;2022-07-03T05:40:26;100428.41;;;25.16;43.41
51178;BME280;37243;49.814;8.652;2022-07-03T05:42:55;100433.56;;;25.17;43.41
51178;BME280;37243;49.814;8.652;2022-07-03T05:45:23;100430.84;;;25.17;43.72
51178;BME280;37243;49.814;8.652;2022-07-03T05:47:54;100429.22;;;25.16;43.75
51178;BME280;37243;49.814;8.652;2022-07-03T05:50:22;100430.84;;;25.17;43.45
51178;BME280;37243;49.814;8.652;2022-07-03T05:52:50;100429.22;;;25.16;43.30
51178;BME280;37243;49.814;8.652;2022-07-03T05:55:19;100431.34;;;25.19;43.85
51178;BME280;37243;49.814;8.652;2022-07-03T05:57:47;100436.03;;;25.19;43.18
51178;BME280;37243;49.814;8.652;2022-07-03T06:00:15;100435.19;;;25.18;43.78
51178;BME280;37243;49.814;8.652;2022-07-03T06:02:44;100438.75;;;25.19;43.59
51178;BME280;37243;49.814;8.652;2022-07-03T06:05:15;100434.09;;;25.19;43.23
51178;BME280;37243;49.814;8.652;2022-07-03T06:07:43;100440.06;;;25.21;43.24
51178;BME280;37243;49.814;8.652;2022-07-03T06:10:11;100441.66;;;25.22;43.41
51178;BME280;37243;49.814;8.652;2022-07-03T06:12:40;100440.53;;;25.23;43.46
51178;BME280;37243;49.814;8.652;2022-07-03T06:15:09;100440.53;;;25.23;43.96
51178;BME280;37243;49.814;8.652;2022-07-03T06:17:37;100435.06;;;25.23;43.65
51178;BME280;37243;49.814;8.652;2022-07-03T06:20:07;100432.78;;;25.25;43.95
51178;BME280;37243;49.814;8.652;2022-07-03T06:22:39;100439.28;;;25.29;43.96
51178;BME280;37243;49.814;8.652;2022-07-03T06:25:08;100435.56;;;25.34;43.66
51178;BME280;37243;49.814;8.652;2022-07-03T06:27:36;100434.59;;;25.30;44.54
51178;BME280;37243;49.814;8.652;2022-07-03T06:30:06;100439.91;;;25.26;43.91
51178;BME280;37243;49.814;8.652;2022-07-03T06:32:35;100430.03;;;25.25;44.55
51178;BME280;37243;49.814;8.652;2022-07-03T06:35:04;100436.03;;;25.27;43.81
51178;BME280;37243;49.814;8.652;2022-07-03T06:37:33;100428.94;;;25.26;44.35
51178;BME280;37243;49.814;8.652;2022-07-03T06:40:05;100431.38;;;25.28;44.03
51178;BME280;37243;49.814;8.652;2022-07-03T06:42:34;100434.13;;;25.36;44.21
51178;BME280;37243;49.814;8.652;2022-07-03T06:45:03;100435.25;;;25.35;43.91
51178;BME280;37243;49.814;8.652;2022-07-03T06:47:36;100442.69;;;25.35;43.54
51178;BME280;37243;49.814;8.652;2022-07-03T06:50:06;100431.53;;;25.31;43.98
51178;BME280;37243;49.814;8.652;2022-07-03T06:52:34;100432.81;;;25.34;44.14
51178;BME280;37243;49.814;8.652;2022-07-03T06:55:06;100435.25;;;25.35;43.65
51178;BME280;37243;49.814;8.652;2022-07-03T06:57:35;100428.94;;;25.35;43.36
51178;BME280;37243;49.814;8.652;2022-07-03T07:00:05;100431.88;;;25.38;44.00
51178;BME280;37243;49.814;8.652;2022-07-03T07:02:33;100437.84;;;25.40;43.88
51178;BME280;37243;49.814;8.652;2022-07-03T07:05:02;100440.13;;;25.47;43.78
51178;BME280;37243;49.814;8.652;2022-07-03T07:07:30;100446.25;;;25.44;43.29
51178;BME280;37243;49.814;8.652;2022-07-03T07:09:59;100441.41;;;25.41;43.31
51178;BME280;37243;49.814;8.652;2022-07-03T07:12:30;100440.28;;;25.42;43.50
51178;BME280;37243;49.814;8.652;2022-07-03T07:14:58;100442.22;;;25.42;44.06
51178;BME280;37243;49.814;8.652;2022-07-03T07:17:26;100436.91;;;25.45;43.88
51178;BME280;37243;49.814;8.652;2022-07-03T07:19:55;100439.16;;;25.43;43.73
51178;BME280;37243;49.814;8.652;2022-07-03T07:22:23;100434.47;;;25.44;43.57
51178;BME280;37243;49.814;8.652;2022-07-03T07:24:52;100432.84;;;25.42;43.85
51178;BME280;37243;49.814;8.652;2022-07-03T07:27:21;100443.41;;;25.49;43.69
51178;BME280;37243;49.814;8.652;2022-07-03T07:29:51;100440.34;;;25.51;43.92
51178;BME280;37243;49.814;8.652;2022-07-03T07:32:20;100442.28;;;25.50;43.34
51178;BME280;37243;49.814;8.652;2022-07-03T07:34:48;100441.25;;;25.46;43.69
51178;BME280;37243;49.814;8.652;2022-07-03T07:37:16;100444.81;;;25.47;44.04
51178;BME280;37243;49.814;8.652;2022-07-03T07:39:45;100446.47;;;25.48;43.68
51178;BME280;37243;49.814;8.652;2022-07-03T07:42:13;100446.66;;;25.51;43.95
51178;BME280;37243;49.814;8.652;2022-07-03T07:44:42;100440.34;;;25.51;43.61
51178;BME280;37243;49.814;8.652;2022-07-03T07:47:13;100447.44;;;25.52;43.25
51178;BME280;37243;49.814;8.652;2022-07-03T07:49:41;100437.44;;;25.56;43.65
51178;BME280;37243;49.814;8.652;2022-07-03T07:52:10;100442.44;;;25.54;43.32
51178;BME280;37243;49.814;8.652;2022-07-03T07:54:38;100447.75;;;25.50;43.29
51178;BME280;37243;49.814;8.652;2022-07-03T07:57:06;100445.84;;;25.51;44.00
51178;BME280;37243;49.814;8.652;2022-07-03T07:59:35;100449.69;;;25.50;43.73
51178;BME280;37243;49.814;8.652;2022-07-03T08:02:03;100452.13;;;25.51;43.76
51178;BME280;37243;49.814;8.652;2022-07-03T08:04:47;100443.41;;;25.58;43.92
51178;BME280;37243;49.814;8.652;2022-07-03T08:07:28;100453.91;;;25.56;43.27
51178;BME280;37243;49.814;8.652;2022-07-03T08:09:56;100450.69;;;25.54;43.62
51178;BME280;37243;49.814;8.652;2022-07-03T08:12:24;100450.19;;;25.52;43.42
51178;BME280;37243;49.814;8.652;2022-07-03T08:14:53;100451.81;;;25.53;44.09
51178;BME280;37243;49.814;8.652;2022-07-03T08:17:21;100451.16;;;25.56;43.58
51178;BME280;37243;49.814;8.652;2022-07-03T08:19:52;100440.84;;;25.61;43.76
51178;BME280;37243;49.814;8.652;2022-07-03T08:22:20;100459.59;;;25.59;43.79
51178;BME280;37243;49.814;8.652;2022-07-03T08:24:49;100444.84;;;25.55;43.98
51178;BME280;37243;49.814;8.652;2022-07-03T08:27:17;100446.78;;;25.55;43.59
51178;BME280;37243;49.814;8.652;2022-07-03T08:29:45;100442.78;;;25.61;43.51
51178;BME280;37243;49.814;8.652;2022-07-03T08:32:14;100427.75;;;25.58;43.64
51178;BME280;37243;49.814;8.652;2022-07-03T08:34:42;100435.81;;;25.55;43.67
51178;BME280;37243;49.814;8.652;2022-07-03T08:37:13;100437.75;;;25.54;44.25
51178;BME280;37243;49.814;8.652;2022-07-03T08:39:42;100441.31;;;25.55;43.69
51178;BME280;37243;49.814;8.652;2022-07-03T08:42:10;100441.81;;;25.57;44.22
51178;BME280;37243;49.814;8.652;2022-07-03T08:44:41;100428.72;;;25.62;43.87
51178;BME280;37243;49.814;8.652;2022-07-03T08:47:12;100432.75;;;25.56;43.74
51178;BME280;37243;49.814;8.652;2022-07-03T08:49:41;100442.13;;;25.55;43.67
51178;BME280;37243;49.814;8.652;2022-07-03T08:52:13;100426.44;;;25.56;44.44
51178;BME280;37243;49.814;8.652;2022-07-03T08:54:42;100431.94;;;25.56;44.09
51178;BME280;37243;49.814;8.652;2022-07-03T08:57:11;100446.34;;;25.61;43.56
51178;BME280;37243;49.814;8.652;2022-07-03T08:59:39;100442.59;;;25.66;44.25
51178;BME280;37243;49.814;8.652;2022-07-03T09:02:08;100430.66;;;25.62;43.82
51178;BME280;37243;49.814;8.652;2022-07-03T09:04:37;100429.66;;;25.58;44.25
51178;BME280;37243;49.814;8.652;2022-07-03T09:07:06;100434.34;;;25.57;43.78
51178;BME280;37243;49.814;8.652;2022-07-03T09:09:37;100435.97;;;25.58;43.88
51178;BME280;37243;49.814;8.652;2022-07-03T09:26:26;100433.75;;;26.55;42.08
51178;BME280;37243;49.814;8.652;2022-07-03T09:28:54;100426.75;;;26.66;41.50
51178;BME280;37243;49.814;8.652;2022-07-03T09:31:24;100429.13;;;26.76;41.20
51178;BME280;37243;49.814;8.652;2022-07-03T09:33:56;100428.34;;;26.84;41.34
51178;BME280;37243;49.814;8.652;2022-07-03T09:36:39;100427.16;;;26.93;41.00
51178;BME280;37243;49.814;8.652;2022-07-03T09:39:14;100428.59;;;26.99;40.92
51178;BME280;37243;49.814;8.652;2022-07-03T09:41:59;100428.91;;;27.07;40.84
51178;BME280;37243;49.814;8.652;2022-07-03T09:44:29;100432.75;;;27.14;41.10
51178;BME280;37243;49.814;8.652;2022-07-03T09:47:13;100424.63;;;27.18;40.55
51178;BME280;37243;49.814;8.652;2022-07-03T09:49:46;100419.75;;;27.23;40.20
51178;BME280;37243;49.814;8.652;2022-07-03T09:52:26;100418.41;;;27.29;41.10
51178;BME280;37243;49.814;8.652;2022-07-03T09:54:55;100412.25;;;27.32;40.42
51178;BME280;37243;49.814;8.652;2022-07-03T09:57:44;100418.34;;;27.38;39.99
51178;BME280;37243;49.814;8.652;2022-07-03T10:00:17;100411.06;;;27.42;40.16
51178;BME280;37243;49.814;8.652;2022-07-03T10:02:54;100413.28;;;27.48;39.96
51178;BME280;37243;49.814;8.652;2022-07-03T10:05:27;100412.63;;;27.51;39.89
51178;BME280;37243;49.814;8.652;2022-07-03T10:07:57;100407.41;;;27.58;39.66
51178;BME280;37243;49.814;8.652;2022-07-03T10:10:27;100405.56;;;27.63;39.61
51178;BME280;37243;49.814;8.652;2022-07-03T10:12:59;100408.94;;;27.68;40.13
51178;BME280;37243;49.814;8.652;2022-07-03T10:15:30;100409.06;;;27.72;39.65
51178;BME280;37243;49.814;8.652;2022-07-03T10:17:59;100407.28;;;27.76;39.37
51178;BME280;37243;49.814;8.652;2022-07-03T10:20:30;100403.50;;;27.80;39.49
51178;BME280;37243;49.814;8.652;2022-07-03T10:22:59;100400.06;;;27.83;38.86
51178;BME280;37243;49.814;8.652;2022-07-03T10:25:27;100403.78;;;27.87;38.71
51178;BME280;37243;49.814;8.652;2022-07-03T10:28:00;100410.22;;;27.91;39.06
51178;BME280;37243;49.814;8.652;2022-07-03T10:30:30;100401.25;;;27.94;38.94
51178;BME280;37243;49.814;8.652;2022-07-03T10:32:58;100398.66;;;27.98;38.80
51178;BME280;37243;49.814;8.652;2022-07-03T10:35:32;100405.44;;;28.00;39.00
51178;BME280;37243;49.814;8.652;2022-07-03T10:38:20;100400.09;;;28.04;39.21
51178;BME280;37243;49.814;8.652;2022-07-03T10:40:56;100404.94;;;28.07;38.56
51178;BME280;37243;49.814;8.652;2022-07-03T10:43:46;100399.06;;;28.08;38.93
51178;BME280;37243;49.814;8.652;2022-07-03T10:59:02;100400.09;;;28.37;38.05
51178;BME280;37243;49.814;8.652;2022-07-03T11:01:31;100395.84;;;28.39;38.13
51178;BME280;37243;49.814;8.652;2022-07-03T11:04:01;100396.66;;;28.40;37.92
51178;BME280;37243;49.814;8.652;2022-07-03T11:12:55;100382.50;;;28.41;38.21
51178;BME280;37243;49.814;8.652;2022-07-03T11:15:30;100381.38;;;28.42;38.47
51178;BME280;37243;49.814;8.652;2022-07-03T11:18:12;100379.41;;;28.43;38.14
51178;BME280;37243;49.814;8.652;2022-07-03T11:24:08;100369.16;;;28.43;38.25
51178;BME280;37243;49.814;8.652;2022-07-03T11:26:41;100368.03;;;28.44;38.00
51178;BME280;37243;49.814;8.652;2022-07-03T11:29:25;100377.94;;;28.45;38.03
51178;BME280;37243;49.814;8.652;2022-07-03T11:35:02;100364.13;;;28.45;37.54
51178;BME280;37243;49.814;8.652;2022-07-03T11:37:31;100360.22;;;28.46;37.84
51178;BME280;37243;49.814;8.652;2022-07-03T11:40:03;100356.63;;;28.46;37.64
51178;BME280;37243;49.814;8.652;2022-07-03T11:42:34;100357.44;;;28.46;37.70
51178;BME280;37243;49.814;8.652;2022-07-03T11:45:04;100361.84;;;28.47;38.02
51178;BME280;37243;49.814;8.652;2022-07-03T11:47:37;100349.66;;;28.48;38.07
51178;BME280;37243;49.814;8.652;2022-07-03T11:50:07;100348.84;;;28.48;38.35
51178;BME280;37243;49.814;8.652;2022-07-03T11:52:36;100352.06;;;28.50;37.92
51178;BME280;37243;49.814;8.652;2022-07-03T11:55:06;100347.69;;;28.49;37.67
51178;BME280;37243;49.814;8.652;2022-07-03T11:57:36;100346.53;;;28.50;38.01
51178;BME280;37243;49.814;8.652;2022-07-03T12:00:06;100341.84;;;28.50;38.19
51178;BME280;37243;49.814;8.652;2022-07-03T12:02:53;100330.78;;;28.50;37.83
51178;BME280;37243;49.814;8.652;2022-07-03T12:05:23;100337.94;;;28.51;38.31
51178;BME280;37243;49.814;8.652;2022-07-03T12:08:02;100348.63;;;28.53;37.57
51178;BME280;37243;49.814;8.652;2022-07-03T12:10:39;100347.81;;;28.52;37.54
51178;BME280;37243;49.814;8.652;2022-07-03T12:13:19;100342.75;;;28.54;37.50
51178;BME280;37243;49.814;8.652;2022-07-03T12:15:49;100342.75;;;28.54;38.00
51178;BME280;37243;49.814;8.652;2022-07-03T12:18:21;100343.53;;;28.55;38.24
51178;BME280;37243;49.814;8.652;2022-07-03T12:20:51;100349.88;;;28.55;37.83
51178;BME280;37243;49.814;8.652;2022-07-03T12:23:21;100343.53;;;28.55;37.47
51178;BME280;37243;49.814;8.652;2022-07-03T12:25:51;100333.31;;;28.55;37.49
51178;BME280;37243;49.814;8.652;2022-07-03T12:28:20;100329.41;;;28.56;37.46
51178;BME280;37243;49.814;8.652;2022-07-03T12:30:50;100328.59;;;28.56;38.01
51178;BME280;37243;49.814;8.652;2022-07-03T12:33:22;100327.81;;;28.55;37.77
51178;BME280;37243;49.814;8.652;2022-07-03T12:36:02;100315.94;;;28.55;37.63
51178;BME280;37243;49.814;8.652;2022-07-03T12:38:32;100320.34;;;28.56;38.28
51178;BME280;37243;49.814;8.652;2022-07-03T12:41:05;100314.00;;;28.55;37.68
51178;BME280;37243;49.814;8.652;2022-07-03T12:43:38;100311.25;;;28.55;37.69
51178;BME280;37243;49.814;8.652;2022-07-03T12:46:22;100308.03;;;28.53;38.05
51178;BME280;37243;49.814;8.652;2022-07-03T12:48:55;100312.38;;;28.54;37.84
51178;BME280;37243;49.814;8.652;2022-07-03T12:51:41;100309.63;;;28.54;38.14
51178;BME280;37243;49.814;8.652;2022-07-03T12:54:12;100309.63;;;28.54;37.59
51178;BME280;37243;49.814;8.652;2022-07-03T12:56:42;100305.72;;;28.55;38.39
51178;BME280;37243;49.814;8.652;2022-07-03T12:59:25;100301.81;;;28.56;38.37
51178;BME280;37243;49.814;8.652;2022-07-03T13:02:03;100305.03;;;28.58;38.32
51178;BME280;37243;49.814;8.652;2022-07-03T13:04:38;100299.50;;;28.58;38.32
51178;BME280;37243;49.814;8.652;2022-07-03T13:07:08;100298.69;;;28.58;38.13
51178;BME280;37243;49.814;8.652;2022-07-03T13:09:37;100302.72;;;28.60;37.67
51178;BME280;37243;49.814;8.652;2022-07-03T13:12:08;100298.81;;;28.61;38.24
51178;BME280;37243;49.814;8.652;2022-07-03T13:14:56;100298.81;;;28.61;37.92
51178;BME280;37243;49.814;8.652;2022-07-03T13:20:28;100287.78;;;28.61;38.48
51178;BME280;37243;49.814;8.652;2022-07-03T13:23:00;100286.66;;;28.62;38.41
51178;BME280;37243;49.814;8.652;2022-07-03T13:25:30;100288.59;;;28.62;38.21
51178;BME280;37243;49.814;8.652;2022-07-03T13:28:04;100283.88;;;28.62;38.80
51178;BME280;37243;49.814;8.652;2022-07-03T13:30:33;100291.84;;;28.64;37.85
51178;BME280;37243;49.814;8.652;2022-07-03T13:33:04;100279.97;;;28.63;37.95
51178;BME280;37243;49.814;8.652;2022-07-03T13:35:36;100282.75;;;28.63;38.21
51178;BME280;37243;49.814;8.652;2022-07-03T13:38:06;100289.88;;;28.64;37.97
51178;BME280;37243;49.814;8.652;2022-07-03T13:40:35;100291.50;;;28.65;38.67
51178;BME280;37243;49.814;8.652;2022-07-03T13:43:05;100276.09;;;28.64;38.00
51178;BME280;37243;49.814;8.652;2022-07-03T13:45:35;100281.59;;;28.64;38.16
51178;BME280;37243;49.814;8.652;2022-07-03T13:48:05;100279.28;;;28.66;38.54
51178;BME280;37243;49.814;8.652;2022-07-03T13:50:37;100275.72;;;28.66;38.55
51178;BME280;37243;49.814;8.652;2022-07-03T13:53:05;100275.72;;;28.66;38.76
51178;BME280;37243;49.814;8.652;2022-07-03T13:55:35;100273.78;;;28.66;38.88